Time,TemperatureF,DewpointF,PressureIn,WindDirection,WindDirectionDegrees,WindSpeedMPH,WindSpeedGustMPH,Humidity,HourlyPrecipIn,Conditions,Clouds,dailyrainin,SoftwareType,DateUTC
2013-01-04 00:00:00,32.3,32.3,30.24,NE,44,0.0,0.0,100,0.00,,,0.43,VWS V14.01,2013-01-04 05:00:00,
2013-01-04 00:03:00,32.3,32.3,30.24,NE,44,0.0,0.0,100,0.00,,,0.00,VWS V14.01,2013-01-04 05:03:00,
2013-01-04 00:05:00,32.3,32.3,30.24,NE,44,0.0,0.0,100,0.00,,,0.00,VWS V14.01,2013-01-04 05:05:00,
2013-01-04 00:08:00,32.3,32.3,30.24,NE,44,0.0,0.0,100,0.00,,,0.00,VWS V14.01,2013-01-04 05:08:00,
2013-01-04 00:10:00,32.3,32.3,30.24,NE,44,0.0,0.0,100,0.00,,,0.00,VWS V14.01,2013-01-04 05:10:00,
2013-01-04 00:13:00,32.6,32.6,30.24,NE,44,0.0,0.0,100,0.00,,,0.00,VWS V14.01,2013-01-04 05:13:00,
2013-01-04 00:15:00,32.6,32.6,30.24,NE,44,0.0,0.0,100,0.00,,,0.00,VWS V14.01,2013-01-04 05:15:00,
2013-01-04 00:19:00,32.6,32.6,30.24,NE,44,0.0,0.0,100,0.00,,,0.00,VWS V14.01,2013-01-04 05:19:00,
2013-01-04 00:20:00,32.6,32.6,30.24,NE,44,0.0,0.0,100,0.00,,,0.00,VWS V14.01,2013-01-04 05:20:00,
2013-01-04 00:24:00,32.6,32.6,30.24,NE,44,0.0,0.0,100,0.00,,,0.00,VWS V14.01,2013-01-04 05:24:00,
2013-01-04 00:25:00,32.6,32.6,30.24,NE,44,0.0,0.0,100,0.00,,,0.00,VWS V14.01,2013-01-04 05:25:00,
2013-01-04 00:29:00,33.2,33.2,30.24,NE,44,0.0,0.0,100,0.00,,,0.00,VWS V14.01,2013-01-04 05:29:00,
2013-01-04 00:30:00,33.2,33.2,30.24,NE,44,0.0,0.0,100,0.00,,,0.00,VWS V14.01,2013-01-04 05:30:00,
2013-01-04 00:34:00,33.2,33.2,30.24,NE,44,0.0,0.0,100,0.00,,,0.00,VWS V14.01,2013-01-04 05:34:00,
2013-01-04 00:35:00,33.2,33.2,30.24,NE,44,0.0,0.0,100,0.00,,,0.00,VWS V14.01,2013-01-04 05:35:00,
2013-01-04 00:39:00,34.2,34.2,30.24,NE,44,0.0,0.0,100,0.00,,,0.00,VWS V14.01,2013-01-04 05:39:00,
2013-01-04 00:40:00,34.2,34.2,30.24,NE,44,0.0,0.0,100,0.00,,,0.00,VWS V14.01,2013-01-04 05:40:00,
2013-01-04 00:44:00,34.2,34.2,30.24,NE,44,0.0,0.0,100,0.00,,,0.00,VWS V14.01,2013-01-04 05:44:00,
2013-01-04 00:45:00,34.2,34.2,30.24,NE,44,0.0,0.0,100,0.00,,,0.00,VWS V14.01,2013-01-04 05:45:00,
2013-01-04 00:49:00,34.8,34.8,30.24,NE,44,0.0,0.0,100,0.00,,,0.00,VWS V14.01,2013-01-04 05:49:00,
2013-01-04 00:50:00,34.8,34.8,30.24,NE,44,0.0,0.0,100,0.00,,,0.00,VWS V14.01,2013-01-04 05:50:00,
2013-01-04 00:54:00,34.4,34.4,30.24,NE,44,0.0,0.0,100,0.00,,,0.00,VWS V14.01,2013-01-04 05:54:00,
2013-01-04 00:55:00,34.1,34.1,30.24,NE,44,0.0,0.0,100,0.00,,,0.00,VWS V14.01,2013-01-04 05:55:00,
2013-01-04 00:59:00,34.1,34.1,30.21,NE,44,0.0,0.0,100,0.00,,,0.00,VWS V14.01,2013-01-04 05:59:00,
2013-01-04 01:00:00,34.1,34.1,30.21,NE,44,0.0,0.0,100,0.00,,,0.00,VWS V14.01,2013-01-04 06:00:00,
2013-01-04 01:04:00,33.5,33.5,30.21,NE,44,0.0,0.0,100,0.00,,,0.00,VWS V14.01,2013-01-04 06:04:00,
2013-01-04 01:05:00,33.5,33.5,30.21,NE,44,0.0,0.0,100,0.00,,,0.00,VWS V14.01,2013-01-04 06:05:00,
2013-01-04 01:09:00,33.5,33.5,30.21,NE,44,0.0,0.0,100,0.00,,,0.00,VWS V14.01,2013-01-04 06:09:00,
2013-01-04 01:10:00,33.5,33.5,30.21,NE,44,0.0,0.0,100,0.00,,,0.00,VWS V14.01,2013-01-04 06:10:00,
2013-01-04 01:14:00,33.5,33.5,30.21,NE,44,0.0,0.0,100,0.00,,,0.00,VWS V14.01,2013-01-04 06:14:00,
2013-01-04 01:15:00,33.5,33.5,30.21,NE,44,0.0,0.0,100,0.00,,,0.00,VWS V14.01,2013-01-04 06:15:00,
2013-01-04 01:19:00,32.6,32.6,30.21,NE,44,0.0,0.0,100,0.00,,,0.00,VWS V14.01,2013-01-04 06:19:00,
2013-01-04 01:20:00,32.6,32.6,30.21,NE,44,0.0,0.0,100,0.00,,,0.00,VWS V14.01,2013-01-04 06:20:00,
2013-01-04 01:24:00,32.6,32.6,30.21,NE,44,0.0,0.0,100,0.00,,,0.00,VWS V14.01,2013-01-04 06:24:00,
2013-01-04 01:25:00,32.8,32.8,30.21,NE,44,0.0,0.0,100,0.00,,,0.00,VWS V14.01,2013-01-04 06:25:00,
2013-01-04 01:29:00,32.8,32.8,30.24,NE,44,0.0,0.0,100,0.00,,,0.00,VWS V14.01,2013-01-04 06:29:00,
2013-01-04 01:30:00,32.8,32.8,30.24,NE,44,0.0,0.0,100,0.00,,,0.00,VWS V14.01,2013-01-04 06:30:00,
2013-01-04 01:35:00,32.6,32.6,30.24,NE,44,0.0,0.0,100,0.00,,,0.00,VWS V14.01,2013-01-04 06:35:00,
2013-01-04 01:40:00,32.6,32.1,30.24,NE,44,0.0,0.0,98,0.00,,,0.00,VWS V14.01,2013-01-04 06:40:00,
2013-01-04 01:45:00,32.6,32.1,30.24,NE,44,0.0,0.0,98,0.00,,,0.00,VWS V14.01,2013-01-04 06:45:00,
2013-01-04 01:50:00,32.6,32.1,30.24,NE,44,0.0,0.0,98,0.00,,,0.00,VWS V14.01,2013-01-04 06:50:00,
2013-01-04 01:55:00,32.6,32.1,30.24,NE,44,0.0,0.0,98,0.00,,,0.00,VWS V14.01,2013-01-04 06:55:00,
2013-01-04 02:00:00,33.3,33.3,30.24,NE,44,0.0,0.0,100,0.00,,,0.00,VWS V14.01,2013-01-04 07:00:00,
2013-01-04 02:05:00,33.9,33.9,30.24,NE,44,0.0,0.0,100,0.00,,,0.00,VWS V14.01,2013-01-04 07:05:00,
2013-01-04 02:10:00,33.9,33.9,30.24,NE,44,0.0,0.0,100,0.00,,,0.00,VWS V14.01,2013-01-04 07:10:00,
2013-01-04 02:15:00,33.9,33.9,30.24,NE,44,0.0,0.0,100,0.00,,,0.00,VWS V14.01,2013-01-04 07:15:00,
2013-01-04 02:20:00,33.9,33.9,30.24,NE,44,0.0,0.0,100,0.00,,,0.00,VWS V14.01,2013-01-04 07:20:00,
2013-01-04 02:25:00,32.3,32.3,30.24,NE,44,0.0,0.0,100,0.00,,,0.00,VWS V14.01,2013-01-04 07:25:00,
2013-01-04 02:30:00,32.1,32.1,30.24,NE,44,0.0,0.0,100,0.00,,,0.00,VWS V14.01,2013-01-04 07:30:00,
2013-01-04 02:35:00,31.9,31.9,30.24,NE,44,0.0,0.0,100,0.00,,,0.00,VWS V14.01,2013-01-04 07:35:00,
2013-01-04 02:40:00,31.7,31.7,30.24,NE,44,0.0,0.0,100,0.00,,,0.00,VWS V14.01,2013-01-04 07:40:00,
2013-01-04 02:45:00,31.7,31.7,30.27,NE,44,0.0,0.0,100,0.00,,,0.00,VWS V14.01,2013-01-04 07:45:00,
2013-01-04 02:50:00,31.5,31.5,30.27,NE,44,0.0,0.0,100,0.00,,,0.00,VWS V14.01,2013-01-04 07:50:00,
2013-01-04 02:55:00,31.7,31.7,30.27,NE,44,0.0,0.0,100,0.00,,,0.00,VWS V14.01,2013-01-04 07:55:00,
2013-01-04 03:00:00,32.3,32.3,30.27,NE,44,0.0,0.0,100,0.00,,,0.00,VWS V14.01,2013-01-04 08:00:00,
2013-01-04 03:05:00,32.6,32.6,30.27,NE,44,0.0,0.0,100,0.00,,,0.00,VWS V14.01,2013-01-04 08:05:00,
2013-01-04 03:10:00,32.8,32.8,30.26,NE,44,0.0,0.0,100,0.00,,,0.00,VWS V14.01,2013-01-04 08:10:00,
2013-01-04 03:11:00,32.6,32.6,30.27,NE,44,0.0,0.0,100,0.00,,,0.00,VWS V14.01,2013-01-04 08:11:00,
2013-01-04 03:15:00,32.3,32.3,30.26,NE,44,0.0,0.0,100,0.00,,,0.00,VWS V14.01,2013-01-04 08:15:00,
2013-01-04 03:16:00,32.1,32.1,30.27,NE,44,0.0,0.0,100,0.00,,,0.00,VWS V14.01,2013-01-04 08:16:00,
2013-01-04 03:20:00,31.7,31.7,30.26,NE,44,0.0,0.0,100,0.00,,,0.00,VWS V14.01,2013-01-04 08:20:00,
2013-01-04 03:21:00,31.7,31.7,30.27,NE,44,0.0,0.0,100,0.00,,,0.00,VWS V14.01,2013-01-04 08:21:00,
2013-01-04 03:25:00,31.5,31.5,30.26,NE,44,0.0,0.0,100,0.00,,,0.00,VWS V14.01,2013-01-04 08:25:00,
2013-01-04 03:26:00,31.4,31.4,30.27,NE,44,0.0,0.0,100,0.00,,,0.00,VWS V14.01,2013-01-04 08:26:00,
2013-01-04 03:30:00,31.2,31.2,30.26,NE,44,0.0,0.0,100,0.00,,,0.00,VWS V14.01,2013-01-04 08:30:00,
2013-01-04 03:31:00,31.2,31.2,30.27,NE,44,0.0,0.0,100,0.00,,,0.00,VWS V14.01,2013-01-04 08:31:00,
2013-01-04 03:35:00,31.0,31.0,30.26,NE,44,0.0,0.0,100,0.00,,,0.00,VWS V14.01,2013-01-04 08:35:00,
2013-01-04 03:36:00,30.8,30.8,30.27,NE,44,0.0,0.0,100,0.00,,,0.00,VWS V14.01,2013-01-04 08:36:00,
2013-01-04 03:40:00,30.6,30.6,30.26,NE,44,0.0,0.0,100,0.00,,,0.00,VWS V14.01,2013-01-04 08:40:00,
2013-01-04 03:41:00,30.6,30.6,30.27,NE,44,0.0,0.0,100,0.00,,,0.00,VWS V14.01,2013-01-04 08:41:00,
2013-01-04 03:45:00,30.5,30.5,30.26,NE,44,0.0,0.0,100,0.00,,,0.00,VWS V14.01,2013-01-04 08:45:00,
2013-01-04 03:46:00,30.5,30.5,30.24,NE,44,0.0,0.0,100,0.00,,,0.00,VWS V14.01,2013-01-04 08:46:00,
2013-01-04 03:50:00,30.3,30.3,30.24,NE,44,0.0,0.0,100,0.00,,,0.00,VWS V14.01,2013-01-04 08:50:00,
2013-01-04 03:51:00,30.3,30.3,30.24,NE,44,0.0,0.0,100,0.00,,,0.00,VWS V14.01,2013-01-04 08:51:00,
2013-01-04 03:55:00,30.5,30.5,30.24,NE,44,0.0,0.0,100,0.00,,,0.00,VWS V14.01,2013-01-04 08:55:00,
2013-01-04 03:56:00,30.5,30.5,30.24,NE,44,0.0,0.0,100,0.00,,,0.00,VWS V14.01,2013-01-04 08:56:00,
2013-01-04 04:00:00,30.5,30.5,30.24,NE,44,0.0,0.0,100,0.00,,,0.00,VWS V14.01,2013-01-04 09:00:00,
2013-01-04 04:01:00,30.6,30.6,30.24,NE,44,0.0,0.0,100,0.00,,CLR,0.00,VWS V14.01,2013-01-04 09:01:00,
2013-01-04 04:05:00,30.8,30.8,30.24,NE,44,0.0,0.0,100,0.00,,,0.00,VWS V14.01,2013-01-04 09:05:00,
2013-01-04 04:06:00,31.0,31.0,30.24,NE,44,0.0,0.0,100,0.00,,CLR,0.00,VWS V14.01,2013-01-04 09:06:00,
2013-01-04 04:10:00,31.0,31.0,30.24,NE,44,0.0,0.0,100,0.00,,,0.00,VWS V14.01,2013-01-04 09:10:00,
2013-01-04 04:11:00,30.8,30.8,30.24,NE,44,0.0,0.0,100,0.00,,CLR,0.00,VWS V14.01,2013-01-04 09:11:00,
2013-01-04 04:15:00,30.6,30.6,30.24,NE,44,0.0,0.0,100,0.00,,,0.00,VWS V14.01,2013-01-04 09:15:00,
2013-01-04 04:16:00,30.5,30.5,30.24,NE,44,0.0,0.0,100,0.00,,CLR,0.00,VWS V14.01,2013-01-04 09:16:00,
2013-01-04 04:20:00,30.3,30.3,30.24,NE,44,0.0,0.0,100,0.00,,,0.00,VWS V14.01,2013-01-04 09:20:00,
2013-01-04 04:22:00,30.1,30.1,30.24,NE,44,0.0,0.0,100,0.00,,CLR,0.00,VWS V14.01,2013-01-04 09:22:00,
2013-01-04 04:25:00,30.1,30.1,30.24,NE,44,0.0,0.0,100,0.00,,,0.00,VWS V14.01,2013-01-04 09:25:00,
2013-01-04 04:27:00,29.9,29.9,30.24,NE,44,0.0,0.0,100,0.00,,CLR,0.00,VWS V14.01,2013-01-04 09:27:00,
2013-01-04 04:30:00,29.9,29.9,30.24,NE,44,0.0,0.0,100,0.00,,,0.00,VWS V14.01,2013-01-04 09:30:00,
2013-01-04 04:32:00,29.7,29.7,30.24,NE,44,0.0,0.0,100,0.00,,CLR,0.00,VWS V14.01,2013-01-04 09:32:00,
2013-01-04 04:35:00,29.7,29.7,30.24,NE,44,0.0,0.0,100,0.00,,,0.00,VWS V14.01,2013-01-04 09:35:00,
2013-01-04 04:37:00,29.6,29.6,30.24,NE,44,0.0,0.0,100,0.00,,CLR,0.00,VWS V14.01,2013-01-04 09:37:00,
2013-01-04 04:40:00,29.4,29.4,30.24,NE,44,0.0,0.0,100,0.00,,,0.00,VWS V14.01,2013-01-04 09:40:00,
2013-01-04 04:42:00,29.4,29.4,30.24,NE,44,0.0,0.0,100,0.00,,CLR,0.00,VWS V14.01,2013-01-04 09:42:00,
2013-01-04 04:45:00,29.2,29.2,30.24,NE,44,0.0,0.0,100,0.00,,,0.00,VWS V14.01,2013-01-04 09:45:00,
2013-01-04 04:47:00,29.2,29.2,30.24,NE,44,0.0,0.0,100,0.00,,CLR,0.00,VWS V14.01,2013-01-04 09:47:00,
2013-01-04 04:50:00,29.2,29.2,30.24,NE,44,0.0,0.0,100,0.00,,,0.00,VWS V14.01,2013-01-04 09:50:00,
2013-01-04 04:52:00,29.4,29.4,30.24,NE,44,0.0,0.0,100,0.00,,CLR,0.00,VWS V14.01,2013-01-04 09:52:00,
2013-01-04 04:55:00,29.7,29.7,30.24,NE,44,0.0,0.0,100,0.00,,,0.00,VWS V14.01,2013-01-04 09:55:00,
2013-01-04 04:57:00,30.1,30.1,30.24,NE,44,0.0,0.0,100,0.00,,CLR,0.00,VWS V14.01,2013-01-04 09:57:00,
2013-01-04 05:00:00,30.5,30.5,30.24,NE,44,0.0,0.0,100,0.00,,,0.00,VWS V14.01,2013-01-04 10:00:00,
2013-01-04 05:02:00,30.8,30.8,30.24,NE,44,0.0,0.0,100,0.00,,CLR,0.00,VWS V14.01,2013-01-04 10:02:00,
2013-01-04 05:05:00,31.2,31.2,30.24,NE,44,0.0,0.0,100,0.00,,,0.00,VWS V14.01,2013-01-04 10:05:00,
2013-01-04 05:07:00,31.0,31.0,30.24,NE,44,0.0,0.0,100,0.00,,CLR,0.00,VWS V14.01,2013-01-04 10:07:00,
2013-01-04 05:10:00,30.8,30.8,30.24,NE,44,0.0,0.0,100,0.00,,,0.00,VWS V14.01,2013-01-04 10:10:00,
2013-01-04 05:12:00,30.5,30.5,30.24,NE,44,0.0,0.0,100,0.00,,CLR,0.00,VWS V14.01,2013-01-04 10:12:00,
2013-01-04 05:15:00,30.3,30.3,30.24,NE,44,0.0,0.0,100,0.00,,,0.00,VWS V14.01,2013-01-04 10:15:00,
2013-01-04 05:17:00,30.3,30.3,30.24,NE,44,0.0,0.0,100,0.00,,CLR,0.00,VWS V14.01,2013-01-04 10:17:00,
2013-01-04 05:20:00,30.1,30.1,30.24,NE,44,0.0,0.0,100,0.00,,,0.00,VWS V14.01,2013-01-04 10:20:00,
2013-01-04 05:23:00,30.1,30.1,30.24,NE,44,0.0,0.0,100,0.00,,CLR,0.00,VWS V14.01,2013-01-04 10:23:00,
2013-01-04 05:25:00,30.1,30.1,30.24,NE,44,0.0,0.0,100,0.00,,,0.00,VWS V14.01,2013-01-04 10:25:00,
2013-01-04 05:28:00,30.1,30.1,30.24,NE,44,0.0,0.0,100,0.00,,CLR,0.00,VWS V14.01,2013-01-04 10:28:00,
2013-01-04 05:30:00,30.1,30.1,30.24,NE,44,0.0,0.0,100,0.00,,,0.00,VWS V14.01,2013-01-04 10:30:00,
2013-01-04 05:33:00,30.1,30.1,30.24,NE,44,0.0,0.0,100,0.00,,CLR,0.00,VWS V14.01,2013-01-04 10:33:00,
2013-01-04 05:35:00,29.9,29.7,30.24,NE,44,0.0,0.0,99,0.00,,,0.00,VWS V14.01,2013-01-04 10:35:00,
2013-01-04 05:38:00,29.9,29.7,30.24,NE,44,0.0,0.0,99,0.00,,CLR,0.00,VWS V14.01,2013-01-04 10:38:00,
2013-01-04 05:40:00,29.9,29.7,30.24,NE,44,0.0,0.0,99,0.00,,,0.00,VWS V14.01,2013-01-04 10:40:00,
2013-01-04 05:43:00,29.7,29.0,30.24,NE,44,0.0,0.0,97,0.00,,CLR,0.00,VWS V14.01,2013-01-04 10:43:00,
2013-01-04 05:45:00,29.6,28.8,30.24,NE,44,0.0,0.0,97,0.00,,,0.00,VWS V14.01,2013-01-04 10:45:00,
2013-01-04 05:48:00,29.6,28.8,30.24,NE,44,0.0,0.0,97,0.00,,CLR,0.00,VWS V14.01,2013-01-04 10:48:00,
2013-01-04 05:50:00,29.7,29.0,30.24,NE,44,0.0,0.0,97,0.00,,,0.00,VWS V14.01,2013-01-04 10:50:00,
2013-01-04 05:53:00,29.7,29.0,30.24,NE,44,0.0,0.0,97,0.00,,CLR,0.00,VWS V14.01,2013-01-04 10:53:00,
2013-01-04 05:55:00,29.7,29.0,30.24,NE,44,0.0,0.0,97,0.00,,,0.00,VWS V14.01,2013-01-04 10:55:00,
2013-01-04 05:58:00,29.9,29.2,30.24,NE,44,0.0,0.0,97,0.00,,CLR,0.00,VWS V14.01,2013-01-04 10:58:00,
2013-01-04 06:00:00,30.1,29.6,30.24,NE,44,0.0,0.0,98,0.00,,,0.00,VWS V14.01,2013-01-04 11:00:00,
2013-01-04 06:03:00,30.6,30.6,30.24,NE,44,0.0,0.0,100,0.00,,CLR,0.00,VWS V14.01,2013-01-04 11:03:00,
2013-01-04 06:05:00,30.5,30.5,30.24,NE,44,0.0,0.0,100,0.00,,,0.00,VWS V14.01,2013-01-04 11:05:00,
2013-01-04 06:08:00,30.1,30.1,30.24,NE,44,0.0,0.0,100,0.00,,CLR,0.00,VWS V14.01,2013-01-04 11:08:00,
2013-01-04 06:10:00,29.9,29.9,30.24,NE,44,0.0,0.0,100,0.00,,,0.00,VWS V14.01,2013-01-04 11:10:00,
2013-01-04 06:13:00,29.4,29.4,30.24,NE,44,0.0,0.0,100,0.00,,CLR,0.00,VWS V14.01,2013-01-04 11:13:00,
2013-01-04 06:15:00,29.2,29.2,30.24,NE,44,0.0,0.0,100,0.00,,,0.00,VWS V14.01,2013-01-04 11:15:00,
2013-01-04 06:18:00,29.0,29.0,30.24,NE,44,0.0,0.0,100,0.00,,CLR,0.00,VWS V14.01,2013-01-04 11:18:00,
2013-01-04 06:20:00,28.8,28.8,30.24,NE,44,0.0,0.0,100,0.00,,,0.00,VWS V14.01,2013-01-04 11:20:00,
2013-01-04 06:23:00,28.7,28.7,30.27,NE,44,0.0,0.0,100,0.00,,CLR,0.00,VWS V14.01,2013-01-04 11:23:00,
2013-01-04 06:25:00,28.7,28.7,30.26,NE,44,0.0,0.0,100,0.00,,,0.00,VWS V14.01,2013-01-04 11:25:00,
2013-01-04 06:28:00,28.5,28.5,30.27,NE,44,0.0,0.0,100,0.00,,CLR,0.00,VWS V14.01,2013-01-04 11:28:00,
2013-01-04 06:30:00,28.5,28.5,30.26,NE,44,0.0,0.0,100,0.00,,,0.00,VWS V14.01,2013-01-04 11:30:00,
2013-01-04 06:33:00,28.5,28.2,30.27,NE,44,0.0,0.0,99,0.00,,CLR,0.00,VWS V14.01,2013-01-04 11:33:00,
2013-01-04 06:35:00,28.3,28.1,30.26,NE,44,0.0,0.0,99,0.00,,,0.00,VWS V14.01,2013-01-04 11:35:00,
2013-01-04 06:39:00,28.3,28.0,30.27,NE,44,0.0,0.0,99,0.00,,CLR,0.00,VWS V14.01,2013-01-04 11:39:00,
2013-01-04 06:40:00,28.3,28.1,30.26,NE,44,0.0,0.0,99,0.00,,,0.00,VWS V14.01,2013-01-04 11:40:00,
2013-01-04 06:44:00,28.3,28.0,30.24,NE,44,0.0,0.0,99,0.00,,CLR,0.00,VWS V14.01,2013-01-04 11:44:00,
2013-01-04 06:45:00,28.3,28.1,30.24,NE,44,0.0,0.0,99,0.00,,,0.00,VWS V14.01,2013-01-04 11:45:00,
2013-01-04 06:49:00,28.5,28.2,30.24,NE,44,0.0,0.0,99,0.00,,CLR,0.00,VWS V14.01,2013-01-04 11:49:00,
2013-01-04 06:50:00,28.5,28.2,30.24,NE,44,0.0,0.0,99,0.00,,,0.00,VWS V14.01,2013-01-04 11:50:00,
2013-01-04 06:54:00,28.5,28.2,30.24,NE,44,0.0,0.0,99,0.00,,CLR,0.00,VWS V14.01,2013-01-04 11:54:00,
2013-01-04 06:55:00,28.5,28.2,30.24,NE,44,0.0,0.0,99,0.00,,,0.00,VWS V14.01,2013-01-04 11:55:00,
2013-01-04 06:59:00,28.7,28.2,30.27,NE,44,0.0,0.0,98,0.00,,CLR,0.00,VWS V14.01,2013-01-04 11:59:00,
2013-01-04 07:00:00,28.7,28.2,30.26,NE,44,0.0,0.0,98,0.00,,,0.00,VWS V14.01,2013-01-04 12:00:00,
2013-01-04 07:04:00,29.2,29.2,30.27,NE,44,0.0,0.0,100,0.00,,CLR,0.00,VWS V14.01,2013-01-04 12:04:00,
2013-01-04 07:05:00,29.2,29.2,30.26,NE,44,0.0,0.0,100,0.00,,,0.00,VWS V14.01,2013-01-04 12:05:00,
2013-01-04 07:09:00,29.0,29.0,30.27,NE,44,0.0,0.0,100,0.00,,CLR,0.00,VWS V14.01,2013-01-04 12:09:00,
2013-01-04 07:10:00,29.0,29.0,30.26,NE,44,0.0,0.0,100,0.00,,,0.00,VWS V14.01,2013-01-04 12:10:00,
2013-01-04 07:14:00,28.7,28.4,30.27,NE,44,0.0,0.0,99,0.00,,CLR,0.00,VWS V14.01,2013-01-04 12:14:00,
2013-01-04 07:15:00,28.5,28.2,30.26,NE,44,0.0,0.0,99,0.00,,,0.00,VWS V14.01,2013-01-04 12:15:00,
2013-01-04 07:19:00,28.3,28.0,30.27,NE,44,0.0,0.0,99,0.00,,CLR,0.00,VWS V14.01,2013-01-04 12:19:00,
2013-01-04 07:20:00,28.1,27.9,30.26,NE,44,0.0,0.0,99,0.00,,,0.00,VWS V14.01,2013-01-04 12:20:00,
2013-01-04 07:24:00,27.8,27.5,30.27,NE,44,0.0,0.0,99,0.00,,CLR,0.00,VWS V14.01,2013-01-04 12:24:00,
2013-01-04 07:25:00,27.8,27.5,30.26,NE,44,0.0,0.0,99,0.00,,,0.00,VWS V14.01,2013-01-04 12:25:00,
2013-01-04 07:29:00,27.6,27.3,30.27,NE,44,0.0,0.0,99,0.00,,CLR,0.00,VWS V14.01,2013-01-04 12:29:00,
2013-01-04 07:30:00,27.6,27.3,30.26,NE,44,0.0,0.0,99,0.00,,,0.00,VWS V14.01,2013-01-04 12:30:00,
2013-01-04 07:34:00,27.9,27.9,30.27,NE,44,0.0,0.0,100,0.00,,CLR,0.00,VWS V14.01,2013-01-04 12:34:00,
2013-01-04 07:35:00,27.9,27.9,30.26,NE,44,0.0,0.0,100,0.00,,,0.00,VWS V14.01,2013-01-04 12:35:00,
2013-01-04 07:39:00,28.1,28.1,30.27,NE,44,0.0,0.0,100,0.00,,CLR,0.00,VWS V14.01,2013-01-04 12:39:00,
2013-01-04 07:40:00,28.1,28.1,30.26,NE,44,0.0,0.0,100,0.00,,,0.00,VWS V14.01,2013-01-04 12:40:00,
2013-01-04 07:44:00,28.5,28.5,30.27,NE,44,0.0,0.0,100,0.00,,CLR,0.00,VWS V14.01,2013-01-04 12:44:00,
2013-01-04 07:45:00,28.5,28.5,30.26,NE,44,0.0,0.0,100,0.00,,,0.00,VWS V14.01,2013-01-04 12:45:00,
2013-01-04 07:49:00,28.7,28.7,30.27,NE,44,0.0,0.0,100,0.00,,CLR,0.00,VWS V14.01,2013-01-04 12:49:00,
2013-01-04 07:50:00,28.7,28.7,30.26,NE,44,0.0,0.0,100,0.00,,,0.00,VWS V14.01,2013-01-04 12:50:00,
2013-01-04 07:54:00,28.3,28.3,30.27,NE,44,0.0,0.0,100,0.00,,CLR,0.00,VWS V14.01,2013-01-04 12:54:00,
2013-01-04 07:55:00,28.3,28.3,30.26,NE,44,0.0,0.0,100,0.00,,,0.00,VWS V14.01,2013-01-04 12:55:00,
2013-01-04 08:00:00,27.9,27.9,30.27,NE,44,0.0,0.0,100,0.00,,CLR,0.00,VWS V14.01,2013-01-04 13:00:00,
2013-01-04 08:05:00,27.6,27.6,30.27,NE,44,0.0,0.0,100,0.00,,CLR,0.00,VWS V14.01,2013-01-04 13:05:00,
2013-01-04 08:10:00,27.6,27.6,30.27,NE,44,0.0,0.0,100,0.00,,CLR,0.00,VWS V14.01,2013-01-04 13:10:00,
2013-01-04 08:15:00,27.6,27.6,30.27,NE,44,0.0,0.0,100,0.00,,CLR,0.00,VWS V14.01,2013-01-04 13:15:00,
2013-01-04 08:20:00,28.5,28.5,30.27,NE,44,0.0,0.0,100,0.00,,CLR,0.00,VWS V14.01,2013-01-04 13:20:00,
2013-01-04 08:25:00,29.6,29.6,30.27,NE,44,0.0,0.0,100,0.00,,CLR,0.00,VWS V14.01,2013-01-04 13:25:00,
2013-01-04 08:30:00,30.1,30.1,30.27,NE,44,0.0,0.0,100,0.00,,CLR,0.00,VWS V14.01,2013-01-04 13:30:00,
2013-01-04 08:35:00,29.6,29.6,30.27,NE,44,0.0,0.0,100,0.00,,CLR,0.00,VWS V14.01,2013-01-04 13:35:00,
2013-01-04 08:40:00,29.6,29.6,30.27,NE,44,0.0,0.0,100,0.00,,CLR,0.00,VWS V14.01,2013-01-04 13:40:00,
2013-01-04 08:45:00,29.7,29.7,30.27,NE,44,0.0,0.0,100,0.00,,CLR,0.00,VWS V14.01,2013-01-04 13:45:00,
2013-01-04 08:50:00,30.1,30.1,30.27,NE,44,0.0,0.0,100,0.00,,CLR,0.00,VWS V14.01,2013-01-04 13:50:00,
2013-01-04 08:55:00,30.3,30.3,30.27,NE,44,0.0,0.0,100,0.00,,CLR,0.00,VWS V14.01,2013-01-04 13:55:00,
2013-01-04 09:00:00,30.8,29.6,30.27,NE,44,0.0,0.0,95,0.00,,CLR,0.00,VWS V14.01,2013-01-04 14:00:00,
2013-01-04 09:05:00,31.4,27.4,30.27,SSE,162,0.0,0.0,85,0.00,,CLR,0.00,VWS V14.01,2013-01-04 14:05:00,
2013-01-04 09:10:00,31.7,27.2,30.27,South,169,0.0,0.0,83,0.00,,CLR,0.00,VWS V14.01,2013-01-04 14:10:00,
2013-01-04 09:15:00,32.3,26.8,30.26,South,169,0.0,0.0,80,0.00,,,0.00,VWS V14.01,2013-01-04 14:15:00,
2013-01-04 09:16:00,32.6,26.8,30.27,South,178,0.0,0.0,79,0.00,,CLR,0.00,VWS V14.01,2013-01-04 14:16:00,
2013-01-04 09:20:00,32.8,26.4,30.26,WNW,300,0.0,11.3,77,0.00,,,0.00,VWS V14.01,2013-01-04 14:20:00,
2013-01-04 09:21:00,33.0,26.2,30.27,South,169,0.0,0.0,76,0.00,,CLR,0.00,VWS V14.01,2013-01-04 14:21:00,
2013-01-04 09:25:00,33.3,26.6,30.26,South,169,8.1,8.5,76,0.00,,,0.00,VWS V14.01,2013-01-04 14:25:00,
2013-01-04 09:26:00,33.3,26.6,30.27,SSE,166,6.7,8.5,76,0.00,,CLR,0.00,VWS V14.01,2013-01-04 14:26:00,
2013-01-04 09:30:00,33.9,26.8,30.26,SSE,166,0.0,8.5,75,0.00,,,0.00,VWS V14.01,2013-01-04 14:30:00,
2013-01-04 09:31:00,33.9,26.8,30.27,SSE,166,0.0,0.0,75,0.00,,CLR,0.00,VWS V14.01,2013-01-04 14:31:00,
2013-01-04 09:35:00,34.1,27.0,30.26,SSE,160,0.0,0.0,75,0.00,,,0.00,VWS V14.01,2013-01-04 14:35:00,
2013-01-04 09:36:00,34.1,27.0,30.27,SSE,155,0.0,0.0,75,0.00,,CLR,0.00,VWS V14.01,2013-01-04 14:36:00,
2013-01-04 09:40:00,34.6,27.2,30.26,SSE,155,0.0,0.0,74,0.00,,,0.00,VWS V14.01,2013-01-04 14:40:00,
2013-01-04 09:41:00,34.6,27.2,30.27,SSE,155,0.0,0.0,74,0.00,,CLR,0.00,VWS V14.01,2013-01-04 14:41:00,
2013-01-04 09:45:00,34.6,27.2,30.26,South,172,0.0,0.0,74,0.00,,,0.00,VWS V14.01,2013-01-04 14:45:00,
2013-01-04 09:46:00,34.6,27.2,30.27,South,172,0.0,0.0,74,0.00,,CLR,0.00,VWS V14.01,2013-01-04 14:46:00,
2013-01-04 09:50:00,35.1,26.4,30.26,South,181,6.7,11.3,70,0.00,,,0.00,VWS V14.01,2013-01-04 14:50:00,
2013-01-04 09:51:00,35.1,26.4,30.27,South,170,0.0,7.0,70,0.00,,CLR,0.00,VWS V14.01,2013-01-04 14:51:00,
2013-01-04 09:55:00,35.5,26.4,30.26,South,172,0.0,7.0,69,0.00,,,0.00,VWS V14.01,2013-01-04 14:55:00,
2013-01-04 09:56:00,35.5,26.4,30.29,South,172,0.0,0.0,69,0.00,,CLR,0.00,VWS V14.01,2013-01-04 14:56:00,
2013-01-04 10:00:00,35.9,26.3,30.30,SSE,157,0.0,8.5,68,0.00,,,0.00,VWS V14.01,2013-01-04 15:00:00,
2013-01-04 10:01:00,35.9,26.4,30.29,South,170,0.0,0.0,68,0.00,,CLR,0.00,VWS V14.01,2013-01-04 15:01:00,
2013-01-04 10:05:00,35.9,26.3,30.30,SSE,163,12.1,18.3,68,0.00,,,0.00,VWS V14.01,2013-01-04 15:05:00,
2013-01-04 10:06:00,35.9,26.4,30.29,South,172,6.7,12.7,68,0.00,,CLR,0.00,VWS V14.01,2013-01-04 15:06:00,
2013-01-04 10:10:00,36.0,25.8,30.30,SE,143,0.0,12.7,66,0.00,,,0.00,VWS V14.01,2013-01-04 15:10:00,
2013-01-04 10:11:00,36.0,25.8,30.29,SE,145,12.1,15.5,66,0.00,,CLR,0.00,VWS V14.01,2013-01-04 15:11:00,
2013-01-04 10:15:00,36.0,25.8,30.30,SSE,148,0.0,15.5,66,0.00,,,0.00,VWS V14.01,2013-01-04 15:15:00,
2013-01-04 10:16:00,36.6,25.6,30.29,South,173,8.1,11.3,64,0.00,,CLR,0.00,VWS V14.01,2013-01-04 15:16:00,
2013-01-04 10:20:00,36.8,25.7,30.30,South,173,8.1,11.3,64,0.00,,,0.00,VWS V14.01,2013-01-04 15:20:00,
2013-01-04 10:22:00,36.8,25.7,30.29,SE,131,10.7,11.3,64,0.00,,CLR,0.00,VWS V14.01,2013-01-04 15:22:00,
2013-01-04 10:25:00,37.1,26.1,30.30,SE,145,0.0,11.3,64,0.00,,,0.00,VWS V14.01,2013-01-04 15:25:00,
2013-01-04 10:27:00,37.5,26.8,30.29,South,176,0.0,0.0,65,0.00,,CLR,0.00,VWS V14.01,2013-01-04 15:27:00,
2013-01-04 10:30:00,37.5,27.2,30.30,SSE,156,9.4,9.9,66,0.00,,,0.00,VWS V14.01,2013-01-04 15:30:00,
2013-01-04 10:32:00,37.7,26.6,30.29,South,185,6.7,11.3,64,0.00,,CLR,0.00,VWS V14.01,2013-01-04 15:32:00,
2013-01-04 10:35:00,37.8,26.8,30.30,SE,145,10.7,12.7,64,0.00,,,0.00,VWS V14.01,2013-01-04 15:35:00,
2013-01-04 10:37:00,38.0,26.9,30.29,SSE,164,6.7,11.3,64,0.00,,CLR,0.00,VWS V14.01,2013-01-04 15:37:00,
2013-01-04 10:40:00,38.4,27.7,30.30,SSE,168,0.0,11.3,65,0.00,,,0.00,VWS V14.01,2013-01-04 15:40:00,
2013-01-04 10:42:00,38.4,26.9,30.29,SSE,167,0.0,12.7,63,0.00,,CLR,0.00,VWS V14.01,2013-01-04 15:42:00,
2013-01-04 10:45:00,38.6,27.1,30.30,SSE,163,0.0,12.7,63,0.00,,,0.00,VWS V14.01,2013-01-04 15:45:00,
2013-01-04 10:47:00,38.6,27.1,30.29,SSE,160,0.0,0.0,63,0.00,,CLR,0.00,VWS V14.01,2013-01-04 15:47:00,
2013-01-04 10:50:00,38.6,27.1,30.30,SSE,151,6.7,7.0,63,0.00,,,0.00,VWS V14.01,2013-01-04 15:50:00,
2013-01-04 10:52:00,38.9,26.6,30.29,SSE,162,0.0,9.9,61,0.00,,CLR,0.00,VWS V14.01,2013-01-04 15:52:00,
2013-01-04 10:55:00,38.9,26.6,30.30,East,99,0.0,9.9,61,0.00,,,0.00,VWS V14.01,2013-01-04 15:55:00,
2013-01-04 10:57:00,39.6,26.1,30.29,SSE,165,10.7,12.7,58,0.00,,CLR,0.00,VWS V14.01,2013-01-04 15:57:00,
2013-01-04 11:00:00,39.8,25.4,30.30,SSE,154,6.7,18.3,56,0.00,,,0.00,VWS V14.01,2013-01-04 16:00:00,
2013-01-04 11:02:00,39.8,25.4,30.29,SE,142,10.7,11.3,56,0.00,,FEW250,0.00,VWS V14.01,2013-01-04 16:02:00,
2013-01-04 11:05:00,40.2,25.8,30.30,SSE,151,10.7,14.1,56,0.00,,,0.00,VWS V14.01,2013-01-04 16:05:00,
2013-01-04 11:07:00,40.2,25.8,30.29,SSE,166,9.4,11.3,56,0.00,,FEW250,0.00,VWS V14.01,2013-01-04 16:07:00,
2013-01-04 11:10:00,40.2,25.8,30.30,SE,137,9.4,11.3,56,0.00,,,0.00,VWS V14.01,2013-01-04 16:10:00,
2013-01-04 11:12:00,40.4,25.9,30.29,SSE,147,16.1,16.9,56,0.00,,FEW250,0.00,VWS V14.01,2013-01-04 16:12:00,
2013-01-04 11:15:00,40.5,26.1,30.30,SSE,156,9.4,16.9,56,0.00,,,0.00,VWS V14.01,2013-01-04 16:15:00,
2013-01-04 11:17:00,40.5,26.1,30.29,South,183,0.0,9.9,56,0.00,,FEW250,0.00,VWS V14.01,2013-01-04 16:17:00,
2013-01-04 11:20:00,40.5,26.1,30.30,SSE,151,6.7,9.9,56,0.00,,,0.00,VWS V14.01,2013-01-04 16:20:00,
2013-01-04 11:22:00,40.7,26.3,30.29,SE,136,10.7,11.3,56,0.00,,FEW250,0.00,VWS V14.01,2013-01-04 16:22:00,
2013-01-04 11:25:00,40.7,26.3,30.30,SSE,149,9.4,18.3,56,0.00,,,0.00,VWS V14.01,2013-01-04 16:25:00,
2013-01-04 11:28:00,40.9,26.4,30.29,East,99,0.0,12.7,56,0.00,,FEW250,0.00,VWS V14.01,2013-01-04 16:28:00,
2013-01-04 11:30:00,41.1,26.6,30.30,SSE,149,9.4,12.7,56,0.00,,,0.00,VWS V14.01,2013-01-04 16:30:00,
2013-01-04 11:33:00,41.3,26.8,30.29,South,171,0.0,12.7,56,0.00,,FEW250,0.00,VWS V14.01,2013-01-04 16:33:00,
2013-01-04 11:35:00,41.3,26.8,30.30,SSE,147,0.0,12.7,56,0.00,,,0.00,VWS V14.01,2013-01-04 16:35:00,
2013-01-04 11:38:00,41.6,27.1,30.29,SSE,166,9.4,18.3,56,0.00,,FEW250,0.00,VWS V14.01,2013-01-04 16:38:00,
2013-01-04 11:40:00,41.6,27.1,30.30,ESE,119,8.1,18.3,56,0.00,,,0.00,VWS V14.01,2013-01-04 16:40:00,
2013-01-04 11:43:00,41.6,27.1,30.27,SSE,149,6.7,9.9,56,0.00,,FEW250,0.00,VWS V14.01,2013-01-04 16:43:00,
2013-01-04 11:45:00,41.6,27.1,30.26,South,170,0.0,11.3,56,0.00,,,0.00,VWS V14.01,2013-01-04 16:45:00,
2013-01-04 11:48:00,41.8,26.8,30.27,SSE,158,0.0,8.5,55,0.00,,FEW250,0.00,VWS V14.01,2013-01-04 16:48:00,
2013-01-04 11:50:00,42.0,27.0,30.26,SSE,150,0.0,8.5,55,0.00,,,0.00,VWS V14.01,2013-01-04 16:50:00,
2013-01-04 11:53:00,42.2,27.2,30.27,SSE,155,0.0,0.0,55,0.00,,FEW250,0.00,VWS V14.01,2013-01-04 16:53:00,
2013-01-04 11:55:00,42.2,27.2,30.26,West,260,9.4,11.3,55,0.00,,,0.00,VWS V14.01,2013-01-04 16:55:00,
2013-01-04 11:58:00,42.3,27.3,30.27,SSE,158,8.1,9.9,55,0.00,,FEW250,0.00,VWS V14.01,2013-01-04 16:58:00,
2013-01-04 12:00:00,42.3,27.3,30.26,SE,143,12.1,12.7,55,0.00,,,0.00,VWS V14.01,2013-01-04 17:00:00,
2013-01-04 12:03:00,42.3,27.3,30.27,SE,126,10.7,12.7,55,0.00,,FEW250,0.00,VWS V14.01,2013-01-04 17:03:00,
2013-01-04 12:05:00,42.3,27.3,30.26,SSE,166,12.1,12.7,55,0.00,,,0.00,VWS V14.01,2013-01-04 17:05:00,
2013-01-04 12:08:00,42.3,27.3,30.27,SSE,164,9.4,12.7,55,0.00,,FEW250,0.00,VWS V14.01,2013-01-04 17:08:00,
2013-01-04 12:10:00,42.3,27.3,30.26,SSE,154,10.7,12.7,55,0.00,,,0.00,VWS V14.01,2013-01-04 17:10:00,
2013-01-04 12:13:00,42.7,27.7,30.27,SE,142,9.4,11.3,55,0.00,,FEW250,0.00,VWS V14.01,2013-01-04 17:13:00,
2013-01-04 12:15:00,42.9,27.8,30.26,SE,142,9.4,11.3,55,0.00,,,0.00,VWS V14.01,2013-01-04 17:15:00,
2013-01-04 12:18:00,43.1,28.0,30.27,SSE,149,0.0,9.9,55,0.00,,FEW250,0.00,VWS V14.01,2013-01-04 17:18:00,
2013-01-04 12:20:00,43.2,28.2,30.26,SSE,163,10.7,12.7,55,0.00,,,0.00,VWS V14.01,2013-01-04 17:20:00,
2013-01-04 12:23:00,43.4,28.4,30.27,SSE,154,10.7,12.7,55,0.00,,FEW250,0.00,VWS V14.01,2013-01-04 17:23:00,
2013-01-04 12:25:00,43.4,28.4,30.26,SSE,154,0.0,12.7,55,0.00,,,0.00,VWS V14.01,2013-01-04 17:25:00,
2013-01-04 12:29:00,43.4,28.4,30.27,SSE,154,0.0,8.5,55,0.00,,FEW250,0.00,VWS V14.01,2013-01-04 17:29:00,
2013-01-04 12:30:00,43.4,28.4,30.26,South,169,10.7,11.3,55,0.00,,,0.00,VWS V14.01,2013-01-04 17:30:00,
2013-01-04 12:34:00,44.0,28.9,30.27,SE,146,8.1,15.5,55,0.00,,FEW250,0.00,VWS V14.01,2013-01-04 17:34:00,
2013-01-04 12:35:00,44.0,28.9,30.26,SE,146,0.0,15.5,55,0.00,,,0.00,VWS V14.01,2013-01-04 17:35:00,
2013-01-04 12:39:00,44.3,29.2,30.27,SE,141,0.0,12.7,55,0.00,,FEW250,0.00,VWS V14.01,2013-01-04 17:39:00,
2013-01-04 12:40:00,44.3,29.2,30.26,East,84,0.0,12.7,55,0.00,,,0.00,VWS V14.01,2013-01-04 17:40:00,
2013-01-04 12:44:00,44.3,29.2,30.27,SSE,168,8.1,8.5,55,0.00,,FEW250,0.00,VWS V14.01,2013-01-04 17:44:00,
2013-01-04 12:45:00,44.3,29.2,30.26,SSE,166,0.0,8.5,55,0.00,,,0.00,VWS V14.01,2013-01-04 17:45:00,
2013-01-04 12:49:00,44.3,29.2,30.27,South,173,16.1,16.9,55,0.00,,FEW250,0.00,VWS V14.01,2013-01-04 17:49:00,
2013-01-04 12:50:00,44.7,28.1,30.26,South,189,16.1,16.9,52,0.00,,,0.00,VWS V14.01,2013-01-04 17:50:00,
2013-01-04 12:54:00,44.9,29.7,30.27,SSE,167,8.1,16.9,55,0.00,,FEW250,0.00,VWS V14.01,2013-01-04 17:54:00,
2013-01-04 12:55:00,44.9,29.7,30.26,South,174,16.1,16.9,55,0.00,,,0.00,VWS V14.01,2013-01-04 17:55:00,
2013-01-04 12:59:00,45.0,28.5,30.27,South,177,12.1,16.9,52,0.00,,FEW250,0.00,VWS V14.01,2013-01-04 17:59:00,
2013-01-04 13:00:00,45.2,28.6,30.26,SSE,154,6.7,16.9,52,0.00,,,0.00,VWS V14.01,2013-01-04 18:00:00,
2013-01-04 13:04:00,45.4,29.7,30.27,SE,145,10.7,11.3,54,0.00,,FEW250,0.00,VWS V14.01,2013-01-04 18:04:00,
2013-01-04 13:05:00,45.4,29.7,30.26,SE,145,10.7,11.3,54,0.00,,,0.00,VWS V14.01,2013-01-04 18:05:00,
2013-01-04 13:09:00,45.6,29.0,30.27,SE,144,0.0,11.3,52,0.00,,FEW250,0.00,VWS V14.01,2013-01-04 18:09:00,
2013-01-04 13:10:00,45.6,29.0,30.26,SE,139,9.4,11.3,52,0.00,,,0.00,VWS V14.01,2013-01-04 18:10:00,
2013-01-04 13:14:00,45.9,30.2,30.21,SE,131,8.1,9.9,54,0.00,,FEW250,0.00,VWS V14.01,2013-01-04 18:14:00,
2013-01-04 13:15:00,45.9,30.2,30.21,SE,131,8.1,9.9,54,0.00,,,0.00,VWS V14.01,2013-01-04 18:15:00,
2013-01-04 13:19:00,46.3,29.6,30.21,SSE,163,0.0,9.9,52,0.00,,FEW250,0.00,VWS V14.01,2013-01-04 18:19:00,
2013-01-04 13:20:00,46.3,29.7,30.21,SSE,163,0.0,9.9,52,0.00,,,0.00,VWS V14.01,2013-01-04 18:20:00,
2013-01-04 13:24:00,46.3,29.6,30.21,SSE,167,9.4,12.7,52,0.00,,FEW250,0.00,VWS V14.01,2013-01-04 18:24:00,
2013-01-04 13:25:00,46.3,29.7,30.21,SSE,167,9.4,12.7,52,0.00,,,0.00,VWS V14.01,2013-01-04 18:25:00,
2013-01-04 13:30:00,46.3,29.6,30.21,South,177,8.1,9.9,52,0.00,,FEW250,0.00,VWS V14.01,2013-01-04 18:30:00,
2013-01-04 13:35:00,46.3,29.6,30.21,NW,318,13.4,14.1,52,0.00,,FEW250,0.00,VWS V14.01,2013-01-04 18:35:00,
2013-01-04 13:40:00,46.3,29.6,30.21,WSW,237,10.7,14.1,52,0.00,,FEW250,0.00,VWS V14.01,2013-01-04 18:40:00,
2013-01-04 13:45:00,46.7,30.0,30.21,SSE,152,6.7,11.3,52,0.00,,FEW250,0.00,VWS V14.01,2013-01-04 18:45:00,
2013-01-04 13:50:00,46.8,30.2,30.21,SSE,150,0.0,9.9,52,0.00,,FEW250,0.00,VWS V14.01,2013-01-04 18:50:00,
2013-01-04 13:55:00,47.0,30.3,30.21,SE,143,0.0,11.3,52,0.00,,FEW250,0.00,VWS V14.01,2013-01-04 18:55:00,
2013-01-04 14:00:00,47.6,31.8,30.21,SSW,192,12.1,12.7,54,0.00,,FEW250,0.00,VWS V14.01,2013-01-04 19:00:00,
2013-01-04 14:05:00,47.7,30.5,30.21,SSW,210,0.0,12.7,51,0.00,,FEW250,0.00,VWS V14.01,2013-01-04 19:05:00,
2013-01-04 14:10:00,47.7,30.5,30.21,South,170,8.1,12.7,51,0.00,,FEW250,0.00,VWS V14.01,2013-01-04 19:10:00,
2013-01-04 14:15:00,47.7,31.9,30.21,SSE,166,0.0,8.5,54,0.00,,FEW250,0.00,VWS V14.01,2013-01-04 19:15:00,
2013-01-04 14:20:00,47.9,30.7,30.21,SE,128,0.0,11.3,51,0.00,,FEW250,0.00,VWS V14.01,2013-01-04 19:20:00,
2013-01-04 14:25:00,47.9,30.7,30.21,SSE,166,10.7,11.3,51,0.00,,FEW250,0.00,VWS V14.01,2013-01-04 19:25:00,
2013-01-04 14:30:00,48.3,31.0,30.21,SE,134,0.0,11.3,51,0.00,,FEW250,0.00,VWS V14.01,2013-01-04 19:30:00,
2013-01-04 14:35:00,48.5,31.2,30.21,SSE,163,0.0,9.9,51,0.00,,FEW250,0.00,VWS V14.01,2013-01-04 19:35:00,
2013-01-04 14:40:00,48.6,31.3,30.18,SSE,165,10.7,11.3,51,0.00,,FEW250,0.00,VWS V14.01,2013-01-04 19:40:00,
2013-01-04 14:45:00,48.6,32.8,30.18,South,173,0.0,0.0,54,0.00,,FEW250,0.00,VWS V14.01,2013-01-04 19:45:00,
2013-01-04 14:50:00,48.8,31.5,30.18,SE,138,0.0,0.0,51,0.00,,FEW250,0.00,VWS V14.01,2013-01-04 19:50:00,
2013-01-04 14:55:00,49.0,31.7,30.18,SSE,150,10.7,11.3,51,0.00,,FEW250,0.00,VWS V14.01,2013-01-04 19:55:00,
2013-01-04 15:00:00,49.0,31.7,30.18,SSE,150,0.0,0.0,51,0.00,,FEW250,0.00,VWS V14.01,2013-01-04 20:00:00,
2013-01-04 15:05:00,49.2,31.8,30.18,NW,307,0.0,0.0,51,0.00,,SCT250,0.00,VWS V14.01,2013-01-04 20:05:00,
2013-01-04 15:10:00,49.0,31.7,30.18,SSE,162,9.4,9.9,51,0.00,,SCT250,0.00,VWS V14.01,2013-01-04 20:10:00,
2013-01-04 15:15:00,49.0,31.7,30.18,SSE,158,6.7,12.7,51,0.00,,SCT250,0.00,VWS V14.01,2013-01-04 20:15:00,
2013-01-04 15:20:00,49.0,31.7,30.18,South,170,0.0,0.0,51,0.00,,SCT250,0.00,VWS V14.01,2013-01-04 20:20:00,
2013-01-04 15:25:00,49.0,31.7,30.18,SSW,192,0.0,8.5,51,0.00,,SCT250,0.00,VWS V14.01,2013-01-04 20:25:00,
2013-01-04 15:30:00,49.0,31.7,30.18,NW,321,0.0,0.0,51,0.00,,SCT250,0.28,VWS V14.01,2013-01-04 20:30:00,
2013-01-04 15:35:00,49.0,31.7,30.18,SSE,155,0.0,0.0,51,0.00,,SCT250,0.00,VWS V14.01,2013-01-04 20:35:00,
2013-01-04 15:40:00,49.4,32.0,30.18,SSE,150,6.7,7.0,51,0.00,,SCT250,0.00,VWS V14.01,2013-01-04 20:40:00,
2013-01-04 15:45:00,49.4,32.0,30.18,South,184,0.0,0.0,51,0.00,,SCT250,0.00,VWS V14.01,2013-01-04 20:45:00,
2013-01-04 15:50:00,49.5,32.2,30.18,SSE,164,10.7,15.5,51,0.00,,SCT250,0.00,VWS V14.01,2013-01-04 20:50:00,
2013-01-04 15:55:00,49.5,32.2,30.18,SSE,165,8.1,15.5,51,0.00,,,0.00,VWS V14.01,2013-01-04 20:55:00,
2013-01-04 15:56:00,49.5,32.2,30.18,SSE,158,10.7,11.3,51,0.00,,SCT250,0.00,VWS V14.01,2013-01-04 20:56:00,
2013-01-04 16:00:00,49.2,31.8,30.18,SSE,147,8.1,11.3,51,0.00,,,0.00,VWS V14.01,2013-01-04 21:00:00,
2013-01-04 16:01:00,49.0,31.7,30.18,SSE,163,13.4,14.1,51,0.00,,SCT250,0.00,VWS V14.01,2013-01-04 21:01:00,
2013-01-04 16:05:00,49.0,31.7,30.18,SSE,167,0.0,14.1,51,0.00,,,0.00,VWS V14.01,2013-01-04 21:05:00,
2013-01-04 16:06:00,49.0,31.7,30.18,SSW,202,9.4,11.3,51,0.00,,SCT250,0.00,VWS V14.01,2013-01-04 21:06:00,
2013-01-04 16:10:00,48.8,31.5,30.18,South,173,14.8,15.5,51,0.00,,,0.00,VWS V14.01,2013-01-04 21:10:00,
2013-01-04 16:11:00,48.8,31.5,30.18,South,170,0.0,15.5,51,0.00,,SCT250,0.00,VWS V14.01,2013-01-04 21:11:00,
2013-01-04 16:15:00,48.8,31.5,30.18,South,179,0.0,15.5,51,0.00,,,0.00,VWS V14.01,2013-01-04 21:15:00,
2013-01-04 16:16:00,48.8,31.5,30.18,SSE,160,8.1,8.5,51,0.00,,SCT250,0.00,VWS V14.01,2013-01-04 21:16:00,
2013-01-04 16:20:00,48.6,31.3,30.18,SSE,159,9.4,9.9,51,0.00,,,0.00,VWS V14.01,2013-01-04 21:20:00,
2013-01-04 16:21:00,48.6,31.3,30.18,NNE,24,0.0,18.3,51,0.00,,SCT250,0.00,VWS V14.01,2013-01-04 21:21:00,
2013-01-04 16:25:00,48.6,31.3,30.18,South,184,10.7,18.3,51,0.00,,,0.00,VWS V14.01,2013-01-04 21:25:00,
2013-01-04 16:26:00,48.6,31.3,30.18,SSE,156,9.4,11.3,51,0.00,,SCT250,0.00,VWS V14.01,2013-01-04 21:26:00,
2013-01-04 16:30:00,48.5,31.2,30.18,SSE,163,0.0,11.3,51,0.00,,,0.00,VWS V14.01,2013-01-04 21:30:00,
2013-01-04 16:31:00,48.5,31.2,30.18,SSE,163,0.0,9.9,51,0.00,,SCT250,0.00,VWS V14.01,2013-01-04 21:31:00,
2013-01-04 16:35:00,48.5,31.2,30.18,SSE,168,0.0,9.9,51,0.00,,,0.00,VWS V14.01,2013-01-04 21:35:00,
2013-01-04 16:36:00,48.5,32.6,30.18,SSE,168,0.0,0.0,54,0.00,,SCT250,0.00,VWS V14.01,2013-01-04 21:36:00,
2013-01-04 16:40:00,48.5,31.2,30.18,SSE,156,9.4,16.9,51,0.00,,,0.00,VWS V14.01,2013-01-04 21:40:00,
2013-01-04 16:41:00,48.5,31.2,30.18,South,173,9.4,9.9,51,0.00,,SCT250,0.00,VWS V14.01,2013-01-04 21:41:00,
2013-01-04 16:45:00,48.8,32.9,30.18,South,180,0.0,9.9,54,0.00,,,0.00,VWS V14.01,2013-01-04 21:45:00,
2013-01-04 16:46:00,48.8,32.9,30.18,NW,306,0.0,12.7,54,0.00,,SCT250,0.00,VWS V14.01,2013-01-04 21:46:00,
2013-01-04 16:50:00,49.0,33.1,30.18,South,184,0.0,12.7,54,0.00,,,0.00,VWS V14.01,2013-01-04 21:50:00,
2013-01-04 16:51:00,49.0,33.1,30.18,South,186,0.0,0.0,54,0.00,,SCT250,0.00,VWS V14.01,2013-01-04 21:51:00,
2013-01-04 16:55:00,48.5,31.2,30.18,WNW,299,0.0,0.0,51,0.00,,,0.00,VWS V14.01,2013-01-04 21:55:00,
2013-01-04 16:56:00,48.5,31.2,30.18,SSE,167,6.7,8.5,51,0.00,,SCT250,0.00,VWS V14.01,2013-01-04 21:56:00,
2013-01-04 17:00:00,48.1,30.8,30.18,South,171,0.0,8.5,51,0.00,,,0.00,VWS V14.01,2013-01-04 22:00:00,
2013-01-04 17:02:00,47.9,30.7,30.18,South,171,0.0,0.0,51,0.00,,SCT250,0.00,VWS V14.01,2013-01-04 22:02:00,
2013-01-04 17:05:00,47.7,30.5,30.18,South,181,0.0,0.0,51,0.00,,,0.00,VWS V14.01,2013-01-04 22:05:00,
2013-01-04 17:07:00,47.7,30.5,30.18,South,173,0.0,0.0,51,0.00,,SCT250,0.00,VWS V14.01,2013-01-04 22:07:00,
2013-01-04 17:10:00,47.6,30.3,30.18,South,173,0.0,0.0,51,0.00,,,0.00,VWS V14.01,2013-01-04 22:10:00,
2013-01-04 17:12:00,47.4,30.2,30.18,WNW,283,0.0,0.0,51,0.00,,SCT250,0.00,VWS V14.01,2013-01-04 22:12:00,
2013-01-04 17:15:00,47.2,30.0,30.18,SW,224,0.0,0.0,51,0.00,,,0.00,VWS V14.01,2013-01-04 22:15:00,
2013-01-04 17:17:00,47.2,30.0,30.18,SW,223,0.0,0.0,51,0.00,,SCT250,0.00,VWS V14.01,2013-01-04 22:17:00,
2013-01-04 17:20:00,47.0,30.3,30.18,South,186,0.0,0.0,52,0.00,,,0.00,VWS V14.01,2013-01-04 22:20:00,
2013-01-04 17:22:00,46.8,30.2,30.18,South,184,0.0,0.0,52,0.00,,SCT250,0.00,VWS V14.01,2013-01-04 22:22:00,
2013-01-04 17:25:00,46.7,30.9,30.18,South,184,0.0,0.0,54,0.00,,,0.00,VWS V14.01,2013-01-04 22:25:00,
2013-01-04 17:27:00,46.7,30.9,30.18,South,184,0.0,0.0,54,0.00,,SCT250,0.00,VWS V14.01,2013-01-04 22:27:00,
2013-01-04 17:30:00,46.7,30.9,30.18,South,184,0.0,0.0,54,0.00,,,0.00,VWS V14.01,2013-01-04 22:30:00,
2013-01-04 17:32:00,46.5,30.8,30.18,South,184,0.0,0.0,54,0.00,,SCT250,0.00,VWS V14.01,2013-01-04 22:32:00,
2013-01-04 17:35:00,46.7,35.2,30.18,South,184,0.0,0.0,64,0.00,,,0.00,VWS V14.01,2013-01-04 22:35:00,
2013-01-04 17:37:00,46.5,32.9,30.18,South,184,0.0,0.0,59,0.00,,SCT250,0.00,VWS V14.01,2013-01-04 22:37:00,
2013-01-04 17:40:00,46.8,32.4,30.18,South,180,0.0,0.0,57,0.00,,,0.00,VWS V14.01,2013-01-04 22:40:00,
2013-01-04 17:42:00,47.0,32.6,30.18,South,179,0.0,0.0,57,0.00,,SCT250,0.00,VWS V14.01,2013-01-04 22:42:00,
2013-01-04 17:45:00,47.2,32.3,30.18,South,179,0.0,0.0,56,0.00,,,0.00,VWS V14.01,2013-01-04 22:45:00,
2013-01-04 17:47:00,47.4,31.6,30.18,South,169,0.0,0.0,54,0.00,,SCT250,0.00,VWS V14.01,2013-01-04 22:47:00,
2013-01-04 17:50:00,47.4,31.6,30.18,South,169,0.0,0.0,54,0.00,,,0.00,VWS V14.01,2013-01-04 22:50:00,
2013-01-04 17:52:00,47.2,31.4,30.18,South,169,0.0,0.0,54,0.00,,SCT250,0.00,VWS V14.01,2013-01-04 22:52:00,
2013-01-04 17:55:00,47.0,31.2,30.18,South,169,0.0,0.0,54,0.00,,,0.00,VWS V14.01,2013-01-04 22:55:00,
2013-01-04 17:57:00,46.8,31.1,30.18,South,169,0.0,0.0,54,0.00,,SCT250,0.00,VWS V14.01,2013-01-04 22:57:00,
2013-01-04 18:00:00,46.7,30.9,30.18,South,169,0.0,0.0,54,0.00,,,0.00,VWS V14.01,2013-01-04 23:00:00,
2013-01-04 18:02:00,46.5,30.8,30.18,South,169,0.0,0.0,54,0.00,,BKN250,0.00,VWS V14.01,2013-01-04 23:02:00,
2013-01-04 18:05:00,46.3,30.6,30.18,South,179,0.0,0.0,54,0.00,,,0.00,VWS V14.01,2013-01-04 23:05:00,
2013-01-04 18:07:00,46.3,30.6,30.18,SSE,162,0.0,0.0,54,0.00,,BKN250,0.00,VWS V14.01,2013-01-04 23:07:00,
2013-01-04 18:10:00,46.3,30.6,30.21,SSE,162,0.0,0.0,54,0.00,,,0.00,VWS V14.01,2013-01-04 23:10:00,
2013-01-04 18:13:00,46.1,30.4,30.21,SSE,167,0.0,0.0,54,0.00,,BKN250,0.00,VWS V14.01,2013-01-04 23:13:00,
2013-01-04 18:15:00,46.1,30.4,30.21,South,182,0.0,0.0,54,0.00,,,0.00,VWS V14.01,2013-01-04 23:15:00,
2013-01-04 18:18:00,46.1,30.4,30.21,SW,225,0.0,0.0,54,0.00,,BKN250,0.00,VWS V14.01,2013-01-04 23:18:00,
2013-01-04 18:20:00,46.1,30.4,30.21,South,184,0.0,0.0,54,0.00,,,0.00,VWS V14.01,2013-01-04 23:20:00,
2013-01-04 18:23:00,45.9,30.2,30.21,South,170,0.0,0.0,54,0.00,,BKN250,0.00,VWS V14.01,2013-01-04 23:23:00,
2013-01-04 18:25:00,45.9,30.2,30.21,South,170,0.0,0.0,54,0.00,,,0.00,VWS V14.01,2013-01-04 23:25:00,
2013-01-04 18:28:00,45.9,30.2,30.21,South,170,0.0,0.0,54,0.00,,BKN250,0.00,VWS V14.01,2013-01-04 23:28:00,
2013-01-04 18:30:00,45.9,30.2,30.21,South,170,0.0,0.0,54,0.00,,,0.00,VWS V14.01,2013-01-04 23:30:00,
2013-01-04 18:33:00,45.8,30.1,30.21,South,170,0.0,0.0,54,0.00,,BKN250,0.00,VWS V14.01,2013-01-04 23:33:00,
2013-01-04 18:35:00,45.8,30.1,30.21,South,170,0.0,0.0,54,0.00,,,0.00,VWS V14.01,2013-01-04 23:35:00,
2013-01-04 18:38:00,45.8,30.1,30.21,South,174,0.0,0.0,54,0.00,,BKN250,0.00,VWS V14.01,2013-01-04 23:38:00,
2013-01-04 18:40:00,45.8,30.1,30.21,SE,135,0.0,0.0,54,0.00,,,0.00,VWS V14.01,2013-01-04 23:40:00,
2013-01-04 18:43:00,45.8,30.1,30.21,SSE,156,0.0,0.0,54,0.00,,BKN250,0.00,VWS V14.01,2013-01-04 23:43:00,
2013-01-04 18:45:00,45.8,30.1,30.21,SSE,165,0.0,0.0,54,0.00,,,0.00,VWS V14.01,2013-01-04 23:45:00,
2013-01-04 18:48:00,45.8,30.1,30.21,SSE,157,10.7,11.3,54,0.00,,BKN250,0.00,VWS V14.01,2013-01-04 23:48:00,
2013-01-04 18:50:00,45.8,30.1,30.21,SSE,165,8.1,11.3,54,0.00,,,0.00,VWS V14.01,2013-01-04 23:50:00,
2013-01-04 18:53:00,45.8,30.1,30.21,SSE,158,6.7,8.5,54,0.00,,BKN250,0.00,VWS V14.01,2013-01-04 23:53:00,
2013-01-04 18:55:00,45.8,30.1,30.21,South,169,0.0,8.5,54,0.00,,,0.00,VWS V14.01,2013-01-04 23:55:00,
2013-01-04 18:58:00,45.8,30.1,30.21,South,169,0.0,0.0,54,0.00,,BKN250,0.00,VWS V14.01,2013-01-04 23:58:00,
2013-01-04 19:00:00,45.8,30.1,30.21,South,169,0.0,0.0,54,0.00,,,0.00,VWS V14.01,2013-01-05 00:00:00,
2013-01-04 19:03:00,45.6,29.9,30.21,SSE,165,0.0,0.0,54,0.00,,OVC120,0.00,VWS V14.01,2013-01-05 00:03:00,
2013-01-04 19:05:00,45.6,29.9,30.21,SSE,165,0.0,0.0,54,0.00,,,0.00,VWS V14.01,2013-01-05 00:05:00,
2013-01-04 19:08:00,45.6,29.9,30.21,South,173,0.0,0.0,54,0.00,,OVC120,0.00,VWS V14.01,2013-01-05 00:08:00,
2013-01-04 19:10:00,45.6,29.9,30.21,South,179,0.0,0.0,54,0.00,,,0.00,VWS V14.01,2013-01-05 00:10:00,
2013-01-04 19:13:00,45.6,29.9,30.21,South,170,0.0,0.0,54,0.00,,OVC120,0.00,VWS V14.01,2013-01-05 00:13:00,
2013-01-04 19:15:00,45.6,29.9,30.21,South,170,0.0,0.0,54,0.00,,,0.00,VWS V14.01,2013-01-05 00:15:00,
2013-01-04 19:18:00,45.6,29.9,30.21,WNW,302,0.0,0.0,54,0.00,,OVC120,0.00,VWS V14.01,2013-01-05 00:18:00,
2013-01-04 19:20:00,45.4,29.7,30.21,West,265,0.0,0.0,54,0.00,,,0.00,VWS V14.01,2013-01-05 00:20:00,
2013-01-04 19:23:00,45.4,29.7,30.21,SSW,205,0.0,0.0,54,0.00,,OVC120,0.00,VWS V14.01,2013-01-05 00:23:00,
2013-01-04 19:25:00,45.4,29.7,30.21,South,170,0.0,0.0,54,0.00,,,0.00,VWS V14.01,2013-01-05 00:25:00,
2013-01-04 19:28:00,45.4,29.7,30.21,SE,146,12.1,12.7,54,0.00,,OVC120,0.00,VWS V14.01,2013-01-05 00:28:00,
2013-01-04 19:30:00,45.4,29.7,30.21,South,171,0.0,12.7,54,0.00,,,0.00,VWS V14.01,2013-01-05 00:30:00,
2013-01-04 19:33:00,45.4,29.7,30.21,SSE,167,0.0,0.0,54,0.00,,OVC120,0.00,VWS V14.01,2013-01-05 00:33:00,
2013-01-04 19:35:00,45.4,29.7,30.21,South,170,10.7,11.3,54,0.00,,,0.00,VWS V14.01,2013-01-05 00:35:00,
2013-01-04 19:39:00,45.2,30.0,30.24,South,169,0.0,11.3,55,0.00,,OVC120,0.00,VWS V14.01,2013-01-05 00:39:00,
2013-01-04 19:40:00,45.2,30.0,30.24,South,169,0.0,11.3,55,0.00,,,0.00,VWS V14.01,2013-01-05 00:40:00,
2013-01-04 19:44:00,45.0,29.9,30.24,SSE,168,0.0,0.0,55,0.00,,OVC120,0.00,VWS V14.01,2013-01-05 00:44:00,
2013-01-04 19:45:00,45.0,29.9,30.24,SSE,168,0.0,0.0,55,0.00,,,0.00,VWS V14.01,2013-01-05 00:45:00,
2013-01-04 19:49:00,44.9,29.7,30.24,South,169,0.0,0.0,55,0.00,,OVC120,0.00,VWS V14.01,2013-01-05 00:49:00,
2013-01-04 19:50:00,44.5,29.4,30.24,South,169,0.0,0.0,55,0.00,,,0.00,VWS V14.01,2013-01-05 00:50:00,
2013-01-04 19:54:00,44.5,29.4,30.24,South,169,0.0,0.0,55,0.00,,OVC120,0.00,VWS V14.01,2013-01-05 00:54:00,
2013-01-04 19:55:00,44.3,29.2,30.24,South,169,0.0,0.0,55,0.00,,,0.00,VWS V14.01,2013-01-05 00:55:00,
2013-01-04 19:59:00,44.1,29.0,30.24,South,169,0.0,0.0,55,0.00,,OVC120,0.00,VWS V14.01,2013-01-05 00:59:00,
2013-01-04 20:00:00,44.1,29.0,30.24,South,169,0.0,0.0,55,0.00,,,0.00,VWS V14.01,2013-01-05 01:00:00,
2013-01-04 20:04:00,43.8,28.7,30.24,SSE,150,0.0,0.0,55,0.00,,SCT120,0.00,VWS V14.01,2013-01-05 01:04:00,
2013-01-04 20:05:00,43.8,28.7,30.24,SSE,150,0.0,0.0,55,0.00,,,0.00,VWS V14.01,2013-01-05 01:05:00,
2013-01-04 20:09:00,43.8,28.7,30.24,South,174,8.1,8.5,55,0.00,,SCT120,0.00,VWS V14.01,2013-01-05 01:09:00,
2013-01-04 20:10:00,43.6,28.5,30.24,West,268,0.0,8.5,55,0.00,,,0.00,VWS V14.01,2013-01-05 01:10:00,
2013-01-04 20:14:00,43.6,28.5,30.24,SSE,164,9.4,12.7,55,0.00,,SCT120,0.00,VWS V14.01,2013-01-05 01:14:00,
2013-01-04 20:15:00,43.6,28.5,30.24,SE,146,10.7,12.7,55,0.00,,,0.00,VWS V14.01,2013-01-05 01:15:00,
2013-01-04 20:19:00,43.6,28.5,30.24,SSE,168,0.0,12.7,55,0.00,,SCT120,0.00,VWS V14.01,2013-01-05 01:19:00,
2013-01-04 20:20:00,43.6,27.1,30.24,SSE,168,0.0,12.7,52,0.00,,,0.00,VWS V14.01,2013-01-05 01:20:00,
2013-01-04 20:24:00,43.8,27.3,30.24,SSE,157,8.1,9.9,52,0.00,,SCT120,0.00,VWS V14.01,2013-01-05 01:24:00,
2013-01-04 20:25:00,43.8,27.3,30.24,SE,133,12.1,12.7,52,0.00,,,0.00,VWS V14.01,2013-01-05 01:25:00,
2013-01-04 20:29:00,43.6,27.1,30.24,South,179,8.1,12.7,52,0.00,,SCT120,0.00,VWS V14.01,2013-01-05 01:29:00,
2013-01-04 20:30:00,43.6,27.1,30.24,South,189,0.0,12.7,52,0.00,,,0.00,VWS V14.01,2013-01-05 01:30:00,
2013-01-04 20:34:00,43.2,27.3,30.24,SSE,157,6.7,11.3,53,0.00,,SCT120,0.00,VWS V14.01,2013-01-05 01:34:00,
2013-01-04 20:35:00,43.2,27.3,30.24,SSE,152,0.0,11.3,53,0.00,,,0.00,VWS V14.01,2013-01-05 01:35:00,
2013-01-04 20:39:00,43.1,27.1,30.24,SSE,152,0.0,0.0,53,0.00,,SCT120,0.00,VWS V14.01,2013-01-05 01:39:00,
2013-01-04 20:40:00,43.1,27.1,30.24,SSE,152,0.0,0.0,53,0.00,,,0.00,VWS V14.01,2013-01-05 01:40:00,
2013-01-04 20:44:00,42.9,26.9,30.24,SSE,148,6.7,11.3,53,0.00,,SCT120,0.00,VWS V14.01,2013-01-05 01:44:00,
2013-01-04 20:45:00,42.7,26.8,30.24,SSE,148,6.7,11.3,53,0.00,,,0.00,VWS V14.01,2013-01-05 01:45:00,
2013-01-04 20:49:00,42.5,26.6,30.24,SSE,164,0.0,7.0,53,0.00,,SCT120,0.00,VWS V14.01,2013-01-05 01:49:00,
2013-01-04 20:50:00,42.5,26.6,30.24,SE,143,0.0,7.0,53,0.00,,,0.00,VWS V14.01,2013-01-05 01:50:00,
2013-01-04 20:54:00,42.3,26.4,30.24,SE,142,0.0,0.0,53,0.00,,SCT120,0.00,VWS V14.01,2013-01-05 01:54:00,
2013-01-04 20:55:00,42.3,26.4,30.24,SE,142,0.0,0.0,53,0.00,,,0.00,VWS V14.01,2013-01-05 01:55:00,
2013-01-04 20:59:00,42.2,26.3,30.24,SE,142,0.0,0.0,53,0.00,,SCT120,0.00,VWS V14.01,2013-01-05 01:59:00,
2013-01-04 21:00:00,42.2,26.3,30.24,SSE,148,8.1,8.5,53,0.00,,,0.00,VWS V14.01,2013-01-05 02:00:00,
2013-01-04 21:04:00,42.0,26.1,30.27,SSE,163,0.0,12.7,53,0.00,,FEW120,0.00,VWS V14.01,2013-01-05 02:04:00,
2013-01-04 21:05:00,42.0,26.1,30.26,SSE,163,0.0,12.7,53,0.00,,,0.00,VWS V14.01,2013-01-05 02:05:00,
2013-01-04 21:10:00,41.8,25.9,30.27,SSE,152,8.1,8.5,53,0.00,,FEW120,0.00,VWS V14.01,2013-01-05 02:10:00,
2013-01-04 21:15:00,41.8,25.9,30.27,SSE,152,0.0,8.5,53,0.00,,FEW120,0.00,VWS V14.01,2013-01-05 02:15:00,
2013-01-04 21:20:00,41.4,25.6,30.27,SSE,152,0.0,0.0,53,0.00,,FEW120,0.00,VWS V14.01,2013-01-05 02:20:00,
2013-01-04 21:25:00,41.1,25.3,30.27,SSE,153,8.1,8.5,53,0.00,,FEW120,0.00,VWS V14.01,2013-01-05 02:25:00,
2013-01-04 21:30:00,40.7,24.9,30.27,SE,142,0.0,8.5,53,0.00,,FEW120,0.00,VWS V14.01,2013-01-05 02:30:00,
2013-01-04 21:35:00,40.7,24.9,30.27,SSE,148,8.1,9.9,53,0.00,,FEW120,0.00,VWS V14.01,2013-01-05 02:35:00,
2013-01-04 21:40:00,40.4,24.6,30.27,SSE,159,6.7,12.7,53,0.00,,FEW120,0.00,VWS V14.01,2013-01-05 02:40:00,
2013-01-04 21:45:00,40.4,24.6,30.27,SSE,164,6.7,7.0,53,0.00,,FEW120,0.00,VWS V14.01,2013-01-05 02:45:00,
2013-01-04 21:50:00,40.2,24.4,30.27,SE,141,8.1,8.5,53,0.00,,FEW120,0.00,VWS V14.01,2013-01-05 02:50:00,
2013-01-04 21:55:00,40.0,24.3,30.27,SE,141,8.1,8.5,53,0.00,,FEW120,0.00,VWS V14.01,2013-01-05 02:55:00,
2013-01-04 22:00:00,40.0,24.3,30.27,SSE,162,0.0,8.5,53,0.00,,FEW120,0.00,VWS V14.01,2013-01-05 03:00:00,
2013-01-04 22:05:00,39.6,23.9,30.27,SE,142,0.0,0.0,53,0.00,,FEW120,0.00,VWS V14.01,2013-01-05 03:05:00,
2013-01-04 22:10:00,39.5,23.8,30.27,South,181,6.7,7.0,53,0.00,,FEW120,0.00,VWS V14.01,2013-01-05 03:10:00,
2013-01-04 22:15:00,39.3,23.6,30.27,SSE,156,12.1,12.7,53,0.00,,FEW120,0.00,VWS V14.01,2013-01-05 03:15:00,
2013-01-04 22:20:00,38.9,23.3,30.27,SSE,157,0.0,12.7,53,0.00,,FEW120,0.00,VWS V14.01,2013-01-05 03:20:00,
2013-01-04 22:25:00,38.9,23.3,30.27,SSE,163,0.0,0.0,53,0.00,,FEW120,0.00,VWS V14.01,2013-01-05 03:25:00,
2013-01-04 22:30:00,38.7,23.1,30.27,SSE,163,0.0,0.0,53,0.00,,FEW120,0.00,VWS V14.01,2013-01-05 03:30:00,
2013-01-04 22:35:00,38.6,24.2,30.27,South,170,0.0,0.0,56,0.00,,FEW120,0.00,VWS V14.01,2013-01-05 03:35:00,
2013-01-04 22:40:00,38.2,23.9,30.27,SSE,149,0.0,0.0,56,0.00,,FEW120,0.00,VWS V14.01,2013-01-05 03:40:00,
2013-01-04 22:45:00,38.2,23.9,30.27,SSE,164,0.0,0.0,56,0.00,,FEW120,0.00,VWS V14.01,2013-01-05 03:45:00,
2013-01-04 22:50:00,38.0,23.7,30.27,SE,140,0.0,0.0,56,0.00,,FEW120,0.00,VWS V14.01,2013-01-05 03:50:00,
2013-01-04 22:55:00,38.0,23.7,30.27,SE,140,0.0,0.0,56,0.00,,FEW120,0.00,VWS V14.01,2013-01-05 03:55:00,
2013-01-04 23:00:00,37.7,23.4,30.27,SE,140,0.0,0.0,56,0.00,,FEW120,0.00,VWS V14.01,2013-01-05 04:00:00,
2013-01-04 23:05:00,37.3,23.1,30.27,SE,140,0.0,0.0,56,0.00,,CLR,0.00,VWS V14.01,2013-01-05 04:05:00,
2013-01-04 23:10:00,37.1,22.9,30.27,SSE,151,0.0,0.0,56,0.00,,CLR,0.00,VWS V14.01,2013-01-05 04:10:00,
2013-01-04 23:15:00,37.1,22.9,30.27,SSE,151,0.0,0.0,56,0.00,,CLR,0.00,VWS V14.01,2013-01-05 04:15:00,
2013-01-04 23:20:00,36.6,22.4,30.27,SSE,151,0.0,0.0,56,0.00,,CLR,0.00,VWS V14.01,2013-01-05 04:20:00,
2013-01-04 23:25:00,36.4,22.2,30.27,SSE,151,0.0,0.0,56,0.00,,CLR,0.00,VWS V14.01,2013-01-05 04:25:00,
2013-01-04 23:30:00,36.2,22.5,30.27,SSE,151,0.0,0.0,57,0.00,,CLR,0.00,VWS V14.01,2013-01-05 04:30:00,
2013-01-04 23:35:00,36.0,22.3,30.27,SSE,151,0.0,0.0,57,0.00,,CLR,0.00,VWS V14.01,2013-01-05 04:35:00,
2013-01-04 23:40:00,36.0,22.3,30.27,SSE,151,0.0,0.0,57,0.00,,CLR,0.00,VWS V14.01,2013-01-05 04:40:00,
2013-01-04 23:45:00,36.0,22.3,30.27,SE,146,0.0,0.0,57,0.00,,CLR,0.00,VWS V14.01,2013-01-05 04:45:00,
2013-01-04 23:50:00,35.9,22.1,30.27,SE,146,0.0,0.0,57,0.00,,CLR,0.00,VWS V14.01,2013-01-05 04:50:00,
2013-01-04 23:55:00,35.7,22.0,30.27,SE,146,0.0,0.0,57,0.00,,CLR,0.00,VWS V14.01,2013-01-05 04:55:00,